Time;durP1;ratioP1;P1;durP2;ratioP2;P2;SDS_P1;SDS_P2;PMS_P1;PMS_P2;Temp;Humidity;BMP_temperature;BMP_pressure;BME280_temperature;BME280_humidity;BME280_pressure;Samples;Min_cycle;Max_cycle;Signal;HPM_P1;HPM_P2
2024/02/03 00:02:08;;;;;;;5.88;3.28;;;;;;;;;;6139713;28;20616;-79
2024/02/03 00:05:11;;;;;;;4.45;2.78;;;;;;;;;;6139775;28;20082;-79
2024/02/03 00:08:13;;;;;;;5.32;3.15;;;;;;;;;;6157844;28;20067;-78
2024/02/03 00:11:14;;;;;;;5.18;3.22;;;;;;;;;;6151363;28;20474;-79
2024/02/03 00:14:16;;;;;;;4.00;2.85;;;;;;;;;;6156567;28;20241;-78
2024/02/03 00:17:17;;;;;;;5.45;2.75;;;;;;;;;;6138684;28;20058;-78
2024/02/03 00:20:20;;;;;;;5.40;2.47;;;;;;;;;;6136843;28;20074;-78
2024/02/03 00:23:21;;;;;;;5.65;2.75;;;;;;;;;;6138934;28;20674;-78
2024/02/03 00:26:23;;;;;;;4.47;2.45;;;;;;;;;;6142853;28;20054;-78
2024/02/03 00:29:24;;;;;;;4.75;2.67;;;;;;;;;;6156273;28;20825;-78
2024/02/03 00:32:28;;;;;;;3.50;2.20;;;;;;;;;;6142455;28;20243;-78
2024/02/03 00:35:30;;;;;;;3.80;2.20;;;;;;;;;;6151240;28;20419;-78
2024/02/03 00:38:32;;;;;;;4.28;2.28;;;;;;;;;;6143500;28;20383;-78
2024/02/03 00:41:33;;;;;;;4.75;2.55;;;;;;;;;;6139874;28;20079;-78
2024/02/03 00:44:36;;;;;;;4.35;2.35;;;;;;;;;;6142579;28;20509;-79
2024/02/03 00:47:37;;;;;;;3.97;2.22;;;;;;;;;;6135981;28;20047;-78
2024/02/03 00:50:39;;;;;;;2.95;2.15;;;;;;;;;;6137201;28;20054;-78
2024/02/03 00:53:41;;;;;;;4.20;2.30;;;;;;;;;;6138260;28;20609;-78
2024/02/03 00:56:43;;;;;;;4.25;2.53;;;;;;;;;;6138943;28;20083;-78
2024/02/03 00:59:45;;;;;;;4.28;2.40;;;;;;;;;;6138950;28;20058;-78
2024/02/03 01:02:47;;;;;;;4.55;2.65;;;;;;;;;;6150948;28;20091;-79
2024/02/03 01:05:49;;;;;;;3.03;1.92;;;;;;;;;;6136120;28;20070;-78
2024/02/03 01:08:50;;;;;;;3.30;2.00;;;;;;;;;;6143710;28;20411;-78
2024/02/03 01:11:53;;;;;;;3.13;2.20;;;;;;;;;;6138725;28;20134;-78
2024/02/03 01:14:55;;;;;;;3.47;2.20;;;;;;;;;;6141897;28;20244;-78
2024/02/03 01:17:56;;;;;;;4.30;2.58;;;;;;;;;;6124724;28;20059;-78
2024/02/03 01:21:01;;;;;;;4.53;2.38;;;;;;;;;;6117785;28;20414;-78
2024/02/03 01:24:03;;;;;;;3.88;2.22;;;;;;;;;;6133600;28;20356;-78
2024/02/03 01:27:05;;;;;;;4.88;2.17;;;;;;;;;;6137286;28;20046;-78
2024/02/03 01:30:08;;;;;;;4.40;2.42;;;;;;;;;;6137992;28;20047;-78
2024/02/03 01:33:09;;;;;;;4.43;2.22;;;;;;;;;;6135083;28;20043;-78
2024/02/03 01:36:11;;;;;;;4.28;2.50;;;;;;;;;;6133054;28;20069;-78
2024/02/03 01:39:13;;;;;;;4.63;2.25;;;;;;;;;;6150485;28;20079;-79
2024/02/03 01:42:15;;;;;;;4.15;2.30;;;;;;;;;;6134103;28;20058;-79
2024/02/03 01:45:16;;;;;;;4.97;2.65;;;;;;;;;;6131732;28;20121;-78
2024/02/03 01:48:19;;;;;;;4.50;2.20;;;;;;;;;;6139203;28;20219;-78
2024/02/03 01:51:21;;;;;;;4.22;2.08;;;;;;;;;;6132194;28;20043;-78
2024/02/03 01:54:25;;;;;;;3.58;2.05;;;;;;;;;;6132998;28;20051;-81
2024/02/03 01:57:31;;;;;;;3.42;2.00;;;;;;;;;;6132915;28;20421;-78
2024/02/03 02:00:33;;;;;;;3.30;1.83;;;;;;;;;;6140052;28;20047;-78
2024/02/03 02:03:35;;;;;;;3.50;1.77;;;;;;;;;;6135610;28;20043;-78
2024/02/03 02:06:36;;;;;;;3.08;1.67;;;;;;;;;;6115739;28;20047;-78
2024/02/03 02:09:38;;;;;;;2.35;1.70;;;;;;;;;;6152351;28;20083;-78
2024/02/03 02:12:40;;;;;;;2.53;1.50;;;;;;;;;;6137538;28;20074;-78
2024/02/03 02:15:42;;;;;;;2.60;1.50;;;;;;;;;;6139886;28;20050;-78
2024/02/03 02:18:44;;;;;;;3.05;1.75;;;;;;;;;;6142482;28;20417;-78
2024/02/03 02:21:45;;;;;;;3.15;1.70;;;;;;;;;;6151696;28;20262;-78
2024/02/03 02:24:47;;;;;;;2.25;1.38;;;;;;;;;;6150866;28;20043;-78
2024/02/03 02:27:50;;;;;;;2.65;1.92;;;;;;;;;;6134069;28;20051;-78
2024/02/03 02:30:55;;;;;;;2.08;1.27;;;;;;;;;;6137323;28;20389;-78
2024/02/03 02:33:57;;;;;;;2.40;1.23;;;;;;;;;;6129651;28;20043;-78
2024/02/03 02:36:58;;;;;;;2.72;1.40;;;;;;;;;;6131385;28;20058;-78
2024/02/03 02:40:00;;;;;;;3.75;1.20;;;;;;;;;;6131756;28;20046;-78
2024/02/03 02:43:04;;;;;;;2.15;1.20;;;;;;;;;;6131890;28;20129;-78
2024/02/03 02:46:06;;;;;;;2.95;1.27;;;;;;;;;;6135163;28;20054;-78
2024/02/03 02:49:09;;;;;;;1.33;0.82;;;;;;;;;;6147500;28;20047;-78
2024/02/03 02:52:11;;;;;;;1.73;1.20;;;;;;;;;;6131887;28;20318;-78
2024/02/03 02:55:13;;;;;;;1.23;0.80;;;;;;;;;;6131536;28;20050;-78
2024/02/03 02:58:15;;;;;;;2.33;0.88;;;;;;;;;;6133289;28;20071;-78
2024/02/03 03:01:17;;;;;;;1.70;0.90;;;;;;;;;;6139572;28;20095;-78
2024/02/03 03:04:20;;;;;;;0.95;0.80;;;;;;;;;;6139794;28;20050;-78
2024/02/03 03:07:23;;;;;;;0.63;0.50;;;;;;;;;;6134956;28;20425;-78
2024/02/03 03:10:25;;;;;;;1.02;0.75;;;;;;;;;;6126547;28;20058;-77
2024/02/03 03:13:27;;;;;;;2.00;0.80;;;;;;;;;;6138106;28;20057;-78
2024/02/03 03:16:29;;;;;;;1.30;0.70;;;;;;;;;;6140179;28;20116;-78
2024/02/03 03:19:35;;;;;;;0.75;0.60;;;;;;;;;;6136559;28;20058;-78
2024/02/03 03:22:37;;;;;;;0.82;0.80;;;;;;;;;;6144833;28;20046;-78
2024/02/03 03:25:39;;;;;;;1.67;0.50;;;;;;;;;;6133724;28;20083;-78
2024/02/03 03:28:41;;;;;;;1.10;0.73;;;;;;;;;;6139722;28;20158;-78
2024/02/03 03:31:43;;;;;;;0.80;0.60;;;;;;;;;;6142324;28;20060;-78
2024/02/03 03:34:44;;;;;;;0.50;0.45;;;;;;;;;;6156382;28;20047;-78
2024/02/03 03:37:46;;;;;;;0.50;0.50;;;;;;;;;;6137291;28;20086;-78
2024/02/03 03:40:48;;;;;;;0.73;0.50;;;;;;;;;;6133260;28;20617;-78
2024/02/03 03:43:50;;;;;;;2.25;0.52;;;;;;;;;;6137945;28;20134;-79
2024/02/03 03:46:52;;;;;;;2.17;0.67;;;;;;;;;;6121593;28;20052;-78
2024/02/03 03:49:53;;;;;;;0.55;0.45;;;;;;;;;;6121316;28;20460;-78
2024/02/03 03:52:55;;;;;;;0.50;0.40;;;;;;;;;;6138319;28;20051;-78
2024/02/03 03:55:58;;;;;;;0.88;0.50;;;;;;;;;;6137622;28;20070;-78
2024/02/03 03:59:01;;;;;;;1.08;0.50;;;;;;;;;;6139729;28;20110;-80
2024/02/03 04:02:03;;;;;;;0.65;0.52;;;;;;;;;;6120663;28;20065;-78
2024/02/03 04:05:08;;;;;;;0.50;0.50;;;;;;;;;;6139600;28;20046;-78
2024/02/03 04:08:10;;;;;;;0.65;0.40;;;;;;;;;;6139578;28;20051;-78
2024/02/03 04:11:12;;;;;;;0.45;0.40;;;;;;;;;;6245777;23;20042;-84
2024/02/03 04:14:14;;;;;;;0.57;0.38;;;;;;;;;;6183842;28;20054;-83
2024/02/03 04:17:15;;;;;;;0.43;0.35;;;;;;;;;;6183642;28;20055;-84
2024/02/03 04:20:17;;;;;;;0.80;0.40;;;;;;;;;;6174011;28;20049;-83
2024/02/03 04:23:19;;;;;;;0.40;0.40;;;;;;;;;;6165056;28;20039;-84
2024/02/03 04:26:21;;;;;;;0.55;0.40;;;;;;;;;;6183219;28;20721;-84
2024/02/03 04:29:23;;;;;;;0.40;0.30;;;;;;;;;;6159518;28;20043;-84
2024/02/03 04:32:24;;;;;;;0.28;0.28;;;;;;;;;;6159457;28;20040;-82
2024/02/03 04:35:26;;;;;;;0.65;0.40;;;;;;;;;;6161156;28;20865;-84
2024/02/03 04:38:28;;;;;;;1.05;0.52;;;;;;;;;;6147848;28;20531;-85
2024/02/03 04:41:30;;;;;;;0.88;0.47;;;;;;;;;;6162360;28;20046;-82
2024/02/03 04:44:31;;;;;;;0.52;0.30;;;;;;;;;;6161600;28;20101;-84
2024/02/03 04:47:33;;;;;;;0.57;0.30;;;;;;;;;;6163345;28;20054;-84
2024/02/03 04:50:35;;;;;;;0.45;0.38;;;;;;;;;;6161896;28;20073;-83
2024/02/03 04:53:39;;;;;;;0.40;0.40;;;;;;;;;;6158252;28;20057;-83
2024/02/03 04:56:40;;;;;;;0.70;0.50;;;;;;;;;;6175391;28;20058;-84
2024/02/03 04:59:42;;;;;;;0.65;0.52;;;;;;;;;;6161217;28;20054;-83
2024/02/03 05:02:44;;;;;;;0.60;0.50;;;;;;;;;;6139007;28;20051;-83
2024/02/03 05:05:45;;;;;;;1.00;0.50;;;;;;;;;;6158827;28;20039;-83
2024/02/03 05:08:47;;;;;;;0.38;0.30;;;;;;;;;;6170589;28;20045;-83
2024/02/03 05:11:50;;;;;;;;;;;;;;;;;;6198597;28;20046;-82
2024/02/03 05:14:52;;;;;;;1.08;0.40;;;;;;;;;;6191611;28;19933;-82
2024/02/03 05:17:53;;;;;;;0.80;0.60;;;;;;;;;;6178105;28;20050;-83
2024/02/03 05:20:55;;;;;;;1.08;0.65;;;;;;;;;;6145784;28;20146;-84
2024/02/03 05:23:57;;;;;;;0.82;0.55;;;;;;;;;;6151665;28;20059;-84
2024/02/03 05:26:59;;;;;;;0.80;0.50;;;;;;;;;;6164653;28;20046;-84
2024/02/03 05:30:01;;;;;;;0.50;0.43;;;;;;;;;;6180557;28;20046;-85
2024/02/03 05:33:03;;;;;;;0.98;0.70;;;;;;;;;;6160141;28;20050;-83
2024/02/03 05:36:06;;;;;;;0.73;0.57;;;;;;;;;;6154495;28;20054;-83
2024/02/03 05:39:08;;;;;;;0.85;0.57;;;;;;;;;;6165988;28;20076;-83
2024/02/03 05:42:10;;;;;;;0.93;0.68;;;;;;;;;;6146664;28;20090;-85
2024/02/03 05:45:12;;;;;;;1.38;0.60;;;;;;;;;;6162466;28;20158;-85
2024/02/03 05:48:13;;;;;;;1.08;0.70;;;;;;;;;;6162936;28;20057;-83
2024/02/03 05:51:17;;;;;;;0.95;0.88;;;;;;;;;;6166644;28;20051;-84
2024/02/03 05:54:19;;;;;;;1.50;0.65;;;;;;;;;;6163387;28;20054;-85
2024/02/03 05:57:21;;;;;;;1.58;1.27;;;;;;;;;;6162386;28;20047;-83
2024/02/03 06:00:22;;;;;;;1.88;0.90;;;;;;;;;;6164881;28;20053;-85
2024/02/03 06:03:24;;;;;;;2.33;0.98;;;;;;;;;;6178771;28;20047;-85
2024/02/03 06:06:26;;;;;;;1.35;0.85;;;;;;;;;;6151138;28;20050;-84
2024/02/03 06:09:32;;;;;;;1.92;1.17;;;;;;;;;;6165405;28;20080;-84
2024/02/03 06:12:34;;;;;;;1.98;0.90;;;;;;;;;;6179065;28;20058;-83
2024/02/03 06:15:36;;;;;;;1.30;0.90;;;;;;;;;;6163833;28;20050;-84
2024/02/03 06:18:37;;;;;;;1.98;1.10;;;;;;;;;;6175851;28;20050;-84
2024/02/03 06:21:39;;;;;;;1.70;1.15;;;;;;;;;;6160057;28;20054;-82
2024/02/03 06:24:41;;;;;;;1.88;1.20;;;;;;;;;;6158130;28;20042;-82
2024/02/03 06:27:43;;;;;;;1.90;1.33;;;;;;;;;;6157686;28;20075;-82
2024/02/03 06:30:45;;;;;;;1.92;1.15;;;;;;;;;;6168929;28;20138;-82
2024/02/03 06:33:47;;;;;;;1.70;1.15;;;;;;;;;;6148246;28;20394;-83
2024/02/03 06:36:49;;;;;;;1.60;1.08;;;;;;;;;;6167947;28;20053;-82
2024/02/03 06:39:51;;;;;;;1.45;1.13;;;;;;;;;;6181626;28;20043;-82
2024/02/03 06:42:53;;;;;;;1.88;1.48;;;;;;;;;;6178970;28;20261;-83
2024/02/03 06:45:54;;;;;;;1.88;1.23;;;;;;;;;;6166738;28;20035;-83
2024/02/03 06:48:56;;;;;;;1.50;1.00;;;;;;;;;;6157155;28;20513;-83
2024/02/03 06:51:58;;;;;;;1.52;1.00;;;;;;;;;;6177021;28;20832;-82
2024/02/03 06:55:00;;;;;;;1.70;1.20;;;;;;;;;;6152126;28;20043;-82
2024/02/03 06:58:03;;;;;;;1.65;1.05;;;;;;;;;;6152652;28;20051;-82
2024/02/03 07:01:04;;;;;;;1.52;0.82;;;;;;;;;;6157487;28;20046;-82
2024/02/03 07:04:06;;;;;;;1.00;0.88;;;;;;;;;;6147894;28;20047;-83
2024/02/03 07:07:08;;;;;;;1.23;0.95;;;;;;;;;;6172804;28;20049;-83
2024/02/03 07:10:10;;;;;;;1.10;0.80;;;;;;;;;;6169737;28;20433;-82
2024/02/03 07:13:12;;;;;;;3.00;1.05;;;;;;;;;;6171609;28;20410;-86
2024/02/03 07:16:14;;;;;;;1.23;0.98;;;;;;;;;;6153511;28;20057;-84
2024/02/03 07:19:16;;;;;;;1.27;0.82;;;;;;;;;;6130785;28;20042;-83
2024/02/03 07:22:18;;;;;;;0.70;0.68;;;;;;;;;;6156141;28;20046;-84
2024/02/03 07:25:19;;;;;;;1.20;0.90;;;;;;;;;;6153390;28;20540;-84
2024/02/03 07:28:21;;;;;;;1.83;0.70;;;;;;;;;;6172061;28;20046;-84
2024/02/03 07:31:28;;;;;;;1.17;0.82;;;;;;;;;;6140355;28;20514;-84
2024/02/03 07:34:30;;;;;;;1.25;0.90;;;;;;;;;;6168928;28;20521;-84
2024/02/03 07:37:32;;;;;;;0.87;0.67;;;;;;;;;;6141716;28;20050;-83
2024/02/03 07:40:42;;;;;;;1.02;0.75;;;;;;;;;;6143890;28;20038;-85
2024/02/03 07:43:44;;;;;;;1.20;0.73;;;;;;;;;;6147264;28;20046;-85
2024/02/03 07:46:45;;;;;;;1.77;0.95;;;;;;;;;;6157332;28;20057;-85
2024/02/03 07:49:47;;;;;;;0.80;0.80;;;;;;;;;;6179754;28;20047;-85
2024/02/03 07:52:49;;;;;;;1.15;0.80;;;;;;;;;;6180182;28;20154;-85
2024/02/03 07:55:51;;;;;;;2.00;0.77;;;;;;;;;;6154752;28;20047;-85
2024/02/03 07:58:52;;;;;;;1.15;0.70;;;;;;;;;;6135873;28;20043;-84
2024/02/03 08:01:55;;;;;;;0.50;0.47;;;;;;;;;;6161349;28;20054;-84
2024/02/03 08:04:56;;;;;;;1.02;0.77;;;;;;;;;;6140343;28;20126;-84
2024/02/03 08:07:59;;;;;;;0.57;0.50;;;;;;;;;;6143589;28;20051;-85
2024/02/03 08:11:01;;;;;;;1.27;0.60;;;;;;;;;;6162770;28;20051;-85
2024/02/03 08:14:03;;;;;;;0.65;0.60;;;;;;;;;;6176587;28;20049;-84
2024/02/03 08:17:04;;;;;;;0.52;0.52;;;;;;;;;;6204838;28;20031;-84
2024/02/03 08:20:06;;;;;;;0.60;0.50;;;;;;;;;;6156146;28;20282;-84
2024/02/03 08:23:11;;;;;;;0.65;0.50;;;;;;;;;;6165595;28;20943;-85
2024/02/03 08:26:13;;;;;;;0.32;0.30;;;;;;;;;;6161170;28;20098;-85
2024/02/03 08:29:14;;;;;;;1.95;0.40;;;;;;;;;;6169362;28;20058;-85
2024/02/03 08:32:16;;;;;;;0.40;0.35;;;;;;;;;;6161071;28;20062;-84
2024/02/03 08:35:19;;;;;;;1.63;0.47;;;;;;;;;;6142988;28;20051;-83
2024/02/03 08:38:24;;;;;;;;;;;;;;;;;;6171730;28;20049;-85
2024/02/03 08:41:26;;;;;;;0.38;0.38;;;;;;;;;;6174729;28;20463;-85
2024/02/03 08:44:28;;;;;;;0.30;0.30;;;;;;;;;;6161780;28;20121;-86
2024/02/03 08:47:31;;;;;;;0.82;0.50;;;;;;;;;;6157836;28;20070;-84
2024/02/03 08:50:33;;;;;;;0.20;0.20;;;;;;;;;;6167191;28;20065;-85
2024/02/03 08:53:34;;;;;;;0.40;0.30;;;;;;;;;;6145746;28;20050;-85
2024/02/03 08:56:36;;;;;;;0.95;0.38;;;;;;;;;;6157023;28;20138;-85
2024/02/03 08:59:38;;;;;;;0.30;0.30;;;;;;;;;;6166571;28;20054;-85
2024/02/03 09:02:40;;;;;;;0.30;0.20;;;;;;;;;;6145860;28;20054;-84
2024/02/03 09:05:41;;;;;;;0.95;0.28;;;;;;;;;;6159797;28;20062;-85
2024/02/03 09:08:43;;;;;;;0.82;0.38;;;;;;;;;;6161664;28;20051;-85
2024/02/03 09:11:45;;;;;;;0.68;0.40;;;;;;;;;;6163957;28;20057;-86
2024/02/03 09:14:47;;;;;;;0.68;0.50;;;;;;;;;;6176417;28;20427;-86
2024/02/03 09:17:50;;;;;;;0.68;0.35;;;;;;;;;;6174356;28;20782;-82
2024/02/03 09:20:52;;;;;;;;;;;;;;;;;;6153013;28;20039;-83
2024/02/03 09:23:54;;;;;;;0.85;0.40;;;;;;;;;;6162790;28;19926;-84
2024/02/03 09:26:55;;;;;;;0.57;0.30;;;;;;;;;;6149317;28;20369;-85
2024/02/03 09:29:57;;;;;;;0.77;0.30;;;;;;;;;;6160290;28;20038;-85
2024/02/03 09:32:59;;;;;;;1.08;0.40;;;;;;;;;;6164822;28;20054;-84
2024/02/03 09:36:04;;;;;;;1.07;0.40;;;;;;;;;;6163395;28;20421;-84
2024/02/03 09:39:06;;;;;;;0.50;0.30;;;;;;;;;;6185269;28;20743;-85
2024/02/03 09:42:09;;;;;;;0.40;0.30;;;;;;;;;;6143912;28;20067;-86
2024/02/03 09:45:11;;;;;;;0.30;0.30;;;;;;;;;;6163762;28;20112;-85
2024/02/03 09:48:13;;;;;;;1.00;0.40;;;;;;;;;;6174565;28;20525;-86
2024/02/03 09:51:15;;;;;;;0.30;0.30;;;;;;;;;;6163825;28;20047;-87
2024/02/03 09:54:17;;;;;;;1.35;0.30;;;;;;;;;;6149902;28;20133;-86
2024/02/03 09:57:19;;;;;;;0.40;0.40;;;;;;;;;;6146839;28;20051;-87
2024/02/03 10:00:21;;;;;;;1.23;0.47;;;;;;;;;;6152799;28;20073;-86
2024/02/03 10:03:23;;;;;;;0.65;0.20;;;;;;;;;;6154860;28;20046;-86
2024/02/03 10:06:25;;;;;;;0.38;0.30;;;;;;;;;;6163339;28;20047;-87
2024/02/03 10:09:28;;;;;;;2.47;0.40;;;;;;;;;;6166316;28;20050;-86
2024/02/03 10:12:50;;;;;;;1.08;0.38;;;;;;;;;;6166747;28;20055;-88
2024/02/03 10:16:03;;;;;;;1.30;0.35;;;;;;;;;;6165474;28;20661;-85
2024/02/03 10:19:05;;;;;;;0.45;0.30;;;;;;;;;;6169619;28;20047;-85
2024/02/03 10:22:07;;;;;;;0.28;0.28;;;;;;;;;;6165856;28;20054;-87
2024/02/03 10:25:09;;;;;;;0.30;0.30;;;;;;;;;;6158902;28;20494;-87
2024/02/03 10:28:18;;;;;;;0.40;0.35;;;;;;;;;;6173483;28;20121;-87
2024/02/03 10:31:20;;;;;;;0.28;0.28;;;;;;;;;;6164486;28;20046;-87
2024/02/03 10:34:22;;;;;;;0.45;0.40;;;;;;;;;;6163128;28;20082;-87
2024/02/03 10:37:24;;;;;;;0.20;0.20;;;;;;;;;;6182526;28;20410;-88
2024/02/03 10:40:33;;;;;;;1.65;0.30;;;;;;;;;;6186455;28;20101;-87
2024/02/03 10:43:37;;;;;;;0.30;0.30;;;;;;;;;;6173272;28;20181;-88
2024/02/03 10:46:40;;;;;;;0.22;0.22;;;;;;;;;;6189221;28;20062;-85
2024/02/03 10:49:43;;;;;;;0.40;0.40;;;;;;;;;;6190643;28;20090;-85
2024/02/03 10:52:49;;;;;;;0.43;0.40;;;;;;;;;;6173056;22;20053;-80
2024/02/03 10:55:56;;;;;;;0.50;0.50;;;;;;;;;;6156623;28;20532;-80
2024/02/03 10:58:58;;;;;;;0.93;0.45;;;;;;;;;;6169763;28;20047;-80
2024/02/03 11:02:01;;;;;;;0.50;0.50;;;;;;;;;;6162646;28;20070;-80
2024/02/03 11:05:03;;;;;;;0.45;0.30;;;;;;;;;;6137838;28;20043;-80
2024/02/03 11:08:07;;;;;;;0.77;0.45;;;;;;;;;;6141234;28;20133;-80
2024/02/03 11:11:09;;;;;;;0.47;0.45;;;;;;;;;;6137995;28;20058;-79
2024/02/03 11:14:15;;;;;;;0.40;0.40;;;;;;;;;;6148199;28;20066;-81
2024/02/03 11:17:17;;;;;;;0.40;0.32;;;;;;;;;;6151260;28;20347;-81
2024/02/03 11:20:20;;;;;;;0.47;0.40;;;;;;;;;;6152397;28;20050;-81
2024/02/03 11:23:25;;;;;;;;;;;;;;;;;;6169484;28;20505;-80
2024/02/03 11:26:29;;;;;;;0.35;0.35;;;;;;;;;;6160961;28;20300;-80
2024/02/03 11:29:31;;;;;;;0.30;0.30;;;;;;;;;;6145767;28;20066;-81
2024/02/03 11:32:34;;;;;;;0.40;0.40;;;;;;;;;;6148084;28;20049;-82
2024/02/03 11:35:36;;;;;;;0.68;0.68;;;;;;;;;;6155655;28;20057;-80
2024/02/03 11:38:48;;;;;;;0.50;0.50;;;;;;;;;;6151585;28;20513;-81
2024/02/03 11:41:50;;;;;;;0.73;0.30;;;;;;;;;;6127061;28;20051;-81
2024/02/03 11:44:56;;;;;;;0.70;0.50;;;;;;;;;;6151369;28;20043;-81
2024/02/03 11:47:59;;;;;;;0.40;0.40;;;;;;;;;;6164895;28;20043;-80
2024/02/03 11:51:02;;;;;;;0.40;0.40;;;;;;;;;;6147089;28;20517;-79
2024/02/03 11:54:04;;;;;;;0.30;0.30;;;;;;;;;;6155479;28;20129;-79
2024/02/03 11:57:07;;;;;;;0.60;0.60;;;;;;;;;;6148352;28;20053;-79
2024/02/03 12:00:13;;;;;;;1.35;0.50;;;;;;;;;;6149874;28;20090;-79
2024/02/03 12:03:16;;;;;;;0.55;0.50;;;;;;;;;;6153360;28;20343;-79
2024/02/03 12:06:21;;;;;;;0.40;0.40;;;;;;;;;;6159451;28;20122;-80
2024/02/03 12:09:23;;;;;;;0.80;0.50;;;;;;;;;;6183414;28;20106;-79
2024/02/03 12:12:25;;;;;;;0.60;0.35;;;;;;;;;;6179883;28;20054;-80
2024/02/03 12:15:27;;;;;;;0.80;0.40;;;;;;;;;;6177058;28;20077;-80
2024/02/03 12:18:29;;;;;;;0.70;0.52;;;;;;;;;;6145024;28;20059;-81
2024/02/03 12:21:31;;;;;;;0.40;0.40;;;;;;;;;;6146162;28;20070;-80
2024/02/03 12:24:33;;;;;;;0.47;0.40;;;;;;;;;;6162159;28;20050;-80
2024/02/03 12:27:35;;;;;;;1.17;0.40;;;;;;;;;;6152189;28;20668;-80
2024/02/03 12:30:37;;;;;;;0.50;0.50;;;;;;;;;;6156410;28;20061;-80
2024/02/03 12:33:39;;;;;;;0.40;0.40;;;;;;;;;;6148957;28;20143;-80
2024/02/03 12:36:41;;;;;;;0.73;0.50;;;;;;;;;;6171471;28;20493;-80
2024/02/03 12:39:43;;;;;;;0.50;0.40;;;;;;;;;;6178398;28;20552;-81
2024/02/03 12:42:45;;;;;;;1.23;0.40;;;;;;;;;;6179676;28;20054;-81
2024/02/03 12:45:48;;;;;;;0.75;0.52;;;;;;;;;;6161819;28;20057;-81
2024/02/03 12:48:51;;;;;;;0.60;0.60;;;;;;;;;;6177725;28;20042;-81
2024/02/03 12:51:53;;;;;;;0.30;0.30;;;;;;;;;;6161627;28;20058;-80
2024/02/03 12:54:55;;;;;;;0.65;0.57;;;;;;;;;;6179742;28;20038;-81
2024/02/03 12:57:59;;;;;;;1.02;0.63;;;;;;;;;;6176889;28;20574;-81
2024/02/03 13:01:01;;;;;;;0.82;0.57;;;;;;;;;;6154004;28;20050;-81
2024/02/03 13:04:03;;;;;;;0.65;0.50;;;;;;;;;;6155536;28;20076;-81
2024/02/03 13:07:05;;;;;;;1.52;0.50;;;;;;;;;;6172689;28;20535;-81
2024/02/03 13:10:07;;;;;;;0.85;0.50;;;;;;;;;;6160120;28;20439;-81
2024/02/03 13:13:08;;;;;;;0.73;0.60;;;;;;;;;;6161954;28;20571;-81
2024/02/03 13:16:10;;;;;;;1.95;0.98;;;;;;;;;;6176092;28;20050;-81
2024/02/03 13:19:13;;;;;;;1.83;0.70;;;;;;;;;;6145983;28;20074;-81
2024/02/03 13:22:15;;;;;;;;;;;;;;;;;;6162335;28;20223;-80
2024/02/03 13:25:17;;;;;;;0.93;0.80;;;;;;;;;;6182087;28;19925;-80
2024/02/03 13:28:18;;;;;;;1.05;0.60;;;;;;;;;;6164095;28;20046;-80
2024/02/03 13:31:25;;;;;;;0.90;0.68;;;;;;;;;;6177864;28;20050;-81
2024/02/03 13:34:27;;;;;;;1.63;0.82;;;;;;;;;;6171688;28;20108;-81
2024/02/03 13:37:29;;;;;;;1.23;0.73;;;;;;;;;;6159857;28;20057;-80
2024/02/03 13:40:31;;;;;;;1.10;0.73;;;;;;;;;;6149797;28;20431;-82
2024/02/03 13:43:32;;;;;;;1.25;0.85;;;;;;;;;;6174522;28;20531;-81
2024/02/03 13:46:34;;;;;;;1.00;0.75;;;;;;;;;;6185664;28;20053;-80
2024/02/03 13:49:36;;;;;;;1.27;1.05;;;;;;;;;;6184497;28;20368;-81
2024/02/03 13:52:37;;;;;;;2.22;1.50;;;;;;;;;;6185154;28;20061;-80
2024/02/03 13:55:39;;;;;;;1.05;0.90;;;;;;;;;;6180820;28;20210;-81
2024/02/03 13:58:41;;;;;;;2.03;1.42;;;;;;;;;;6165842;28;20050;-79
2024/02/03 14:01:43;;;;;;;1.37;1.27;;;;;;;;;;6165156;28;20062;-79
2024/02/03 14:04:45;;;;;;;1.60;1.50;;;;;;;;;;6179689;28;21044;-80
2024/02/03 14:07:47;;;;;;;1.65;1.45;;;;;;;;;;6162245;28;20088;-81
2024/02/03 14:10:49;;;;;;;2.20;1.33;;;;;;;;;;6176675;28;20061;-81
2024/02/03 14:13:51;;;;;;;1.65;1.50;;;;;;;;;;6154826;28;20053;-81
2024/02/03 14:16:53;;;;;;;2.80;1.75;;;;;;;;;;6159479;28;20089;-80
2024/02/03 14:19:55;;;;;;;2.20;1.52;;;;;;;;;;6182376;28;20563;-79
2024/02/03 14:22:57;;;;;;;1.88;1.20;;;;;;;;;;6182059;28;20046;-80
2024/02/03 14:25:58;;;;;;;1.48;1.20;;;;;;;;;;6177990;28;20523;-80
2024/02/03 14:29:00;;;;;;;2.50;1.50;;;;;;;;;;6182084;28;20045;-80
2024/02/03 14:32:03;;;;;;;2.05;1.85;;;;;;;;;;6182432;28;20090;-78
2024/02/03 14:35:05;;;;;;;1.48;1.38;;;;;;;;;;6151813;28;20050;-80
2024/02/03 14:38:07;;;;;;;1.63;1.27;;;;;;;;;;6164933;28;20112;-81
2024/02/03 14:41:09;;;;;;;2.15;1.95;;;;;;;;;;6166841;28;20042;-81
2024/02/03 14:44:11;;;;;;;1.65;1.55;;;;;;;;;;6157621;28;20507;-80
2024/02/03 14:47:13;;;;;;;2.67;1.67;;;;;;;;;;6166598;28;20428;-81
2024/02/03 14:50:15;;;;;;;2.20;1.73;;;;;;;;;;6186388;28;20061;-80
2024/02/03 14:53:17;;;;;;;3.10;1.98;;;;;;;;;;6180152;28;20038;-80
2024/02/03 14:56:19;;;;;;;2.47;2.00;;;;;;;;;;6163964;28;20058;-79
2024/02/03 14:59:20;;;;;;;2.10;1.85;;;;;;;;;;6179157;28;20388;-80
2024/02/03 15:02:23;;;;;;;2.70;2.25;;;;;;;;;;6182567;28;20508;-80
2024/02/03 15:05:25;;;;;;;2.63;2.20;;;;;;;;;;6177070;28;20061;-78
2024/02/03 15:08:27;;;;;;;3.38;2.45;;;;;;;;;;6164580;28;20050;-80
2024/02/03 15:11:28;;;;;;;2.70;2.30;;;;;;;;;;6186948;28;20054;-77
2024/02/03 15:14:30;;;;;;;3.17;2.25;;;;;;;;;;6186717;28;20054;-78
2024/02/03 15:17:32;;;;;;;2.67;2.47;;;;;;;;;;6179390;28;20304;-78
2024/02/03 15:20:34;;;;;;;2.40;2.20;;;;;;;;;;6184441;28;20051;-78
2024/02/03 15:23:36;;;;;;;3.83;2.72;;;;;;;;;;6153205;28;20138;-78
2024/02/03 15:26:39;;;;;;;3.17;2.70;;;;;;;;;;6180197;28;20138;-80
2024/02/03 15:29:40;;;;;;;3.25;2.30;;;;;;;;;;6168669;28;20042;-80
2024/02/03 15:32:42;;;;;;;3.30;2.53;;;;;;;;;;6167300;28;20065;-79
2024/02/03 15:35:45;;;;;;;4.35;2.42;;;;;;;;;;6188398;28;20132;-79
2024/02/03 15:38:47;;;;;;;4.20;2.42;;;;;;;;;;6182851;28;20130;-79
2024/02/03 15:41:49;;;;;;;3.88;2.42;;;;;;;;;;6180786;28;20525;-80
2024/02/03 15:44:50;;;;;;;2.90;2.55;;;;;;;;;;6169350;28;20614;-80
2024/02/03 15:47:52;;;;;;;3.40;2.70;;;;;;;;;;6184207;28;20093;-79
2024/02/03 15:50:54;;;;;;;5.32;2.72;;;;;;;;;;6180134;28;20185;-80
2024/02/03 15:53:56;;;;;;;3.80;2.63;;;;;;;;;;6185483;28;20080;-79
2024/02/03 15:56:58;;;;;;;3.03;2.55;;;;;;;;;;6179568;28;20124;-80
2024/02/03 16:00:00;;;;;;;3.58;2.80;;;;;;;;;;6185347;28;20046;-80
2024/02/03 16:03:12;;;;;;;3.75;2.92;;;;;;;;;;6178486;28;20457;-80
2024/02/03 16:06:14;;;;;;;5.03;3.60;;;;;;;;;;6182909;28;20070;-80
2024/02/03 16:09:16;;;;;;;4.73;3.07;;;;;;;;;;6149374;28;20078;-79
2024/02/03 16:12:21;;;;;;;4.18;3.22;;;;;;;;;;6179275;28;20057;-80
2024/02/03 16:15:25;;;;;;;4.82;3.10;;;;;;;;;;6149655;28;20643;-78
2024/02/03 16:18:27;;;;;;;4.55;3.38;;;;;;;;;;6163344;28;20046;-79
2024/02/03 16:21:28;;;;;;;4.90;3.40;;;;;;;;;;6179390;28;20065;-79
2024/02/03 16:24:30;;;;;;;4.47;3.42;;;;;;;;;;6180961;28;20050;-79
2024/02/03 16:27:32;;;;;;;4.75;2.92;;;;;;;;;;6172435;28;20047;-79
2024/02/03 16:30:34;;;;;;;5.70;3.42;;;;;;;;;;6172426;28;20050;-79
2024/02/03 16:33:38;;;;;;;4.47;3.42;;;;;;;;;;6177934;28;20061;-79
2024/02/03 16:36:40;;;;;;;10.65;6.15;;;;;;;;;;6162590;28;20137;-80
2024/02/03 16:39:42;;;;;;;6.07;3.53;;;;;;;;;;6179415;28;20038;-79
2024/02/03 16:42:44;;;;;;;13.00;5.95;;;;;;;;;;6178239;28;20050;-82
2024/02/03 16:45:46;;;;;;;13.75;7.38;;;;;;;;;;6166002;28;20058;-79
2024/02/03 16:48:48;;;;;;;10.68;6.30;;;;;;;;;;6182080;28;20504;-78
2024/02/03 16:51:50;;;;;;;7.07;5.05;;;;;;;;;;6182179;28;20043;-78
2024/02/03 16:54:51;;;;;;;6.50;4.32;;;;;;;;;;6183661;28;20101;-80
2024/02/03 16:57:53;;;;;;;6.00;4.20;;;;;;;;;;6184746;28;20104;-80
2024/02/03 17:00:55;;;;;;;6.97;5.13;;;;;;;;;;6169179;28;20619;-81
2024/02/03 17:03:58;;;;;;;7.40;5.07;;;;;;;;;;6181271;28;20048;-80
2024/02/03 17:07:01;;;;;;;6.63;4.75;;;;;;;;;;6163444;28;20369;-81
2024/02/03 17:10:04;;;;;;;11.00;6.95;;;;;;;;;;6183657;28;20567;-81
2024/02/03 17:13:07;;;;;;;15.45;9.27;;;;;;;;;;6162361;28;20046;-81
2024/02/03 17:16:09;;;;;;;12.93;7.95;;;;;;;;;;6165629;28;20146;-81
2024/02/03 17:19:11;;;;;;;7.75;5.05;;;;;;;;;;6165369;28;20054;-80
2024/02/03 17:22:13;;;;;;;8.02;5.65;;;;;;;;;;6164248;28;21068;-81
2024/02/03 17:25:14;;;;;;;8.35;5.45;;;;;;;;;;6182962;28;20065;-80
2024/02/03 17:28:18;;;;;;;8.75;5.93;;;;;;;;;;6186499;28;20037;-81
2024/02/03 17:31:19;;;;;;;7.82;5.20;;;;;;;;;;6161320;28;20047;-81
2024/02/03 17:34:21;;;;;;;7.95;5.10;;;;;;;;;;6180588;28;20046;-77
2024/02/03 17:37:24;;;;;;;8.65;5.40;;;;;;;;;;6179689;28;20562;-80
2024/02/03 17:40:28;;;;;;;8.68;5.40;;;;;;;;;;6177898;28;20053;-78
2024/02/03 17:43:30;;;;;;;7.93;5.20;;;;;;;;;;6167275;28;20053;-78
2024/02/03 17:46:31;;;;;;;5.85;4.28;;;;;;;;;;6202671;28;20072;-79
2024/02/03 17:49:33;;;;;;;6.60;4.63;;;;;;;;;;6175119;28;20142;-79
2024/02/03 17:52:35;;;;;;;7.13;4.80;;;;;;;;;;6184007;28;20066;-79
2024/02/03 17:55:37;;;;;;;5.18;3.10;;;;;;;;;;6163094;28;20070;-76
2024/02/03 17:58:38;;;;;;;5.80;4.20;;;;;;;;;;6181889;28;20042;-77
2024/02/03 18:01:40;;;;;;;6.03;3.67;;;;;;;;;;6184575;28;20084;-77
2024/02/03 18:04:42;;;;;;;7.97;4.20;;;;;;;;;;6176987;28;20511;-77
2024/02/03 18:07:44;;;;;;;4.45;3.70;;;;;;;;;;6176263;28;20504;-77
2024/02/03 18:10:50;;;;;;;4.03;2.75;;;;;;;;;;6177185;28;20116;-77
2024/02/03 18:13:51;;;;;;;3.08;2.10;;;;;;;;;;6174398;28;20053;-77